createdAt,value
2018-01-08T00:00:47.173Z,49.90
2018-01-08T00:01:47.129Z,50.00
2018-01-08T00:02:47.082Z,50.00
2018-01-08T00:03:47.040Z,49.90
2018-01-08T00:04:46.996Z,49.62
2018-01-08T00:05:46.960Z,49.52
2018-01-08T00:06:46.908Z,50.00
2018-01-08T00:07:46.865Z,49.90
2018-01-08T00:08:46.821Z,50.00
2018-01-08T00:09:46.778Z,50.00
2018-01-08T00:10:46.736Z,49.90
2018-01-08T00:11:46.691Z,49.62
2018-01-08T00:12:46.645Z,50.00
2018-01-08T00:13:46.601Z,49.80
2018-01-08T00:14:46.556Z,49.90
2018-01-08T00:15:46.513Z,50.00
2018-01-08T00:16:46.468Z,49.80
2018-01-08T00:17:46.424Z,50.19
2018-01-08T00:18:46.384Z,49.90
2018-01-08T00:19:46.336Z,50.00
2018-01-08T00:20:46.292Z,49.90
2018-01-08T00:21:46.249Z,50.00
2018-01-08T00:22:46.205Z,49.71
2018-01-08T00:23:46.164Z,50.09
2018-01-08T00:24:46.116Z,50.19
2018-01-08T00:25:46.073Z,50.19
2018-01-08T00:26:46.028Z,49.90
2018-01-08T00:27:45.982Z,49.71
2018-01-08T00:28:45.939Z,49.80
2018-01-08T00:29:45.905Z,50.00
2018-01-08T00:30:45.850Z,50.00
2018-01-08T00:31:45.808Z,49.62
2018-01-08T00:32:45.765Z,49.62
2018-01-08T00:33:45.722Z,49.62
2018-01-08T00:34:45.675Z,50.02
2018-01-08T00:35:45.632Z,49.43
2018-01-08T00:36:45.587Z,49.62
2018-01-08T00:37:45.544Z,49.55
2018-01-08T00:38:45.498Z,49.33
2018-01-08T00:39:45.459Z,49.64
2018-01-08T00:40:45.414Z,49.43
2018-01-08T00:41:45.369Z,50.00
2018-01-08T00:42:45.323Z,49.64
2018-01-08T00:43:45.285Z,49.90
2018-01-08T00:44:45.242Z,49.80
2018-01-08T00:45:45.194Z,49.90
2018-01-08T00:46:45.146Z,49.74
2018-01-08T00:47:45.103Z,49.71
2018-01-08T00:48:45.059Z,49.74
2018-01-08T00:49:45.018Z,49.62
2018-01-08T00:50:44.969Z,49.84
2018-01-08T00:51:44.926Z,49.84
2018-01-08T00:52:44.883Z,49.45
2018-01-08T00:53:44.843Z,49.43
2018-01-08T00:54:44.794Z,49.35
2018-01-08T00:55:44.752Z,49.64
2018-01-08T00:56:44.705Z,49.52
2018-01-08T00:57:44.663Z,49.93
2018-01-08T00:58:44.619Z,49.62
2018-01-08T00:59:44.576Z,49.90
2018-01-08T01:00:44.531Z,49.93
2018-01-08T01:01:44.489Z,49.80
2018-01-08T01:02:44.443Z,49.93
2018-01-08T01:03:44.400Z,49.90
2018-01-08T01:04:44.353Z,49.71
2018-01-08T01:05:44.312Z,49.62
2018-01-08T01:06:44.267Z,49.93
2018-01-08T01:07:44.224Z,49.90
2018-01-08T01:08:44.179Z,49.84
2018-01-08T01:09:44.136Z,49.55
2018-01-08T01:10:44.092Z,49.62
2018-01-08T01:11:44.048Z,49.64
2018-01-08T01:12:44.003Z,49.45
2018-01-08T01:13:43.961Z,49.93
2018-01-08T01:14:43.926Z,49.52
2018-01-08T01:15:43.871Z,49.55
2018-01-08T01:16:43.830Z,49.64
2018-01-08T01:17:43.784Z,49.62
2018-01-08T01:18:43.740Z,49.64
2018-01-08T01:19:43.695Z,49.71
2018-01-08T01:20:43.652Z,49.52
2018-01-08T01:21:43.608Z,49.43
2018-01-08T01:22:43.563Z,49.55
2018-01-08T01:23:43.520Z,49.64
2018-01-08T01:24:43.481Z,49.43
2018-01-08T01:25:43.432Z,49.74
2018-01-08T01:26:43.387Z,49.64
2018-01-08T01:27:43.345Z,49.55
2018-01-08T01:28:43.301Z,49.64
2018-01-08T01:29:43.256Z,49.64
2018-01-08T01:30:43.211Z,49.45
2018-01-08T01:31:43.172Z,49.71
2018-01-08T01:32:43.123Z,49.74
2018-01-08T01:33:43.080Z,49.52
2018-01-08T01:34:43.031Z,49.64
2018-01-08T01:35:42.994Z,49.45
2018-01-08T01:36:42.953Z,49.62
2018-01-08T01:37:42.906Z,49.62
2018-01-08T01:38:42.859Z,49.64
2018-01-08T01:39:42.821Z,49.52
2018-01-08T01:40:42.777Z,49.90
2018-01-08T01:41:42.729Z,50.00
2018-01-08T01:42:42.685Z,49.80
2018-01-08T01:43:42.639Z,49.84
2018-01-08T01:44:42.597Z,49.80
2018-01-08T01:45:42.553Z,50.00
2018-01-08T01:46:42.510Z,49.84
2018-01-08T01:47:42.464Z,49.62
2018-01-08T01:48:42.420Z,49.43
2018-01-08T01:49:42.378Z,49.80
2018-01-08T01:50:42.333Z,49.52
2018-01-08T01:51:42.290Z,49.43
2018-01-08T01:52:42.245Z,49.52
2018-01-08T01:53:42.202Z,49.64
2018-01-08T01:54:42.157Z,49.62
2018-01-08T01:55:42.113Z,49.45
2018-01-08T01:56:42.066Z,49.90
2018-01-08T01:57:42.026Z,49.62
2018-01-08T01:58:41.981Z,49.90
2018-01-08T01:59:41.938Z,49.64
2018-01-08T02:00:41.894Z,49.62
2018-01-08T02:01:41.850Z,49.71
2018-01-08T02:02:41.806Z,49.55
2018-01-08T02:03:41.763Z,49.64
2018-01-08T02:04:41.717Z,49.43
2018-01-08T02:05:41.675Z,49.52
2018-01-08T02:06:41.629Z,49.80
2018-01-08T02:07:41.585Z,49.62
2018-01-08T02:08:41.542Z,49.62
2018-01-08T02:09:41.498Z,49.52
2018-01-08T02:10:41.454Z,49.64
2018-01-08T02:11:41.410Z,50.00
2018-01-08T02:12:41.366Z,49.43
2018-01-08T02:13:41.321Z,49.90
2018-01-08T02:14:41.279Z,49.71
2018-01-08T02:15:41.234Z,49.90
2018-01-08T02:16:41.189Z,50.00
2018-01-08T02:17:41.147Z,50.00
2018-01-08T02:18:41.100Z,49.74
2018-01-08T02:19:41.058Z,49.62
2018-01-08T02:20:41.013Z,49.62
2018-01-08T02:21:40.969Z,49.62
2018-01-08T02:22:40.928Z,49.62
2018-01-08T02:23:40.882Z,49.64
2018-01-08T02:24:40.839Z,49.62
2018-01-08T02:25:40.792Z,49.62
2018-01-08T02:26:40.750Z,49.52
2018-01-08T02:27:40.707Z,49.62
2018-01-08T02:28:40.662Z,49.64
2018-01-08T02:29:40.621Z,49.55
2018-01-08T02:30:40.581Z,49.62
2018-01-08T02:31:40.531Z,49.64
2018-01-08T02:32:40.487Z,49.52
2018-01-08T02:33:40.451Z,49.62
2018-01-08T02:34:40.399Z,49.52
2018-01-08T02:35:40.354Z,49.55
2018-01-08T02:36:40.311Z,49.74
2018-01-08T02:37:40.267Z,49.43
2018-01-08T02:38:40.222Z,49.35
2018-01-08T02:39:40.179Z,49.55
2018-01-08T02:40:40.134Z,49.55
2018-01-08T02:41:40.091Z,49.55
2018-01-08T02:42:40.046Z,49.45
2018-01-08T02:43:40.004Z,49.35
2018-01-08T02:44:39.959Z,49.45
2018-01-08T02:45:39.913Z,49.45
2018-01-08T02:46:39.870Z,49.55
2018-01-08T02:47:39.828Z,49.74
2018-01-08T02:48:39.785Z,49.74
2018-01-08T02:49:39.738Z,49.52
2018-01-08T02:50:39.697Z,49.64
2018-01-08T02:51:39.649Z,49.62
2018-01-08T02:52:39.607Z,49.52
2018-01-08T02:53:39.562Z,49.55
2018-01-08T02:54:39.522Z,49.74
2018-01-08T02:55:39.474Z,49.74
2018-01-08T02:56:39.445Z,49.74
2018-01-08T02:57:39.388Z,49.52
2018-01-08T02:58:39.343Z,49.71
2018-01-08T02:59:39.301Z,49.71
2018-01-08T03:00:39.254Z,49.45
2018-01-08T03:01:39.208Z,49.33
2018-01-08T03:02:39.167Z,49.62
2018-01-08T03:03:39.122Z,49.55
2018-01-08T03:04:39.079Z,49.84
2018-01-08T03:05:39.035Z,49.64
2018-01-08T03:06:38.992Z,49.93
2018-01-08T03:07:38.947Z,49.90
2018-01-08T03:08:38.905Z,49.90
2018-01-08T03:09:38.859Z,49.62
2018-01-08T03:10:38.814Z,49.62
2018-01-08T03:11:38.771Z,49.45
2018-01-08T03:12:38.727Z,49.62
2018-01-08T03:13:38.684Z,49.64
2018-01-08T03:14:38.639Z,49.74
2018-01-08T03:15:38.595Z,49.43
2018-01-08T03:16:38.549Z,49.43
2018-01-08T03:17:38.508Z,49.64
2018-01-08T03:18:38.463Z,49.84
2018-01-08T03:19:38.418Z,49.71
2018-01-08T03:20:38.376Z,49.64
2018-01-08T03:21:38.332Z,49.64
2018-01-08T03:22:38.287Z,49.71
2018-01-08T03:23:38.244Z,49.55
2018-01-08T03:24:38.200Z,49.55
2018-01-08T03:25:38.157Z,49.64
2018-01-08T03:26:38.112Z,49.43
2018-01-08T03:27:38.066Z,49.55
2018-01-08T03:28:38.026Z,49.55
2018-01-08T03:29:37.979Z,49.62
2018-01-08T03:30:37.937Z,49.71
2018-01-08T03:31:37.891Z,49.84
2018-01-08T03:32:37.850Z,49.62
2018-01-08T03:33:37.804Z,50.00
2018-01-08T03:34:37.762Z,49.55
2018-01-08T03:35:37.716Z,49.93
2018-01-08T03:36:37.672Z,49.62
2018-01-08T03:37:37.628Z,50.02
2018-01-08T03:38:37.586Z,49.90
2018-01-08T03:39:37.541Z,49.62
2018-01-08T03:40:37.495Z,49.80
2018-01-08T03:41:37.455Z,49.71
2018-01-08T03:42:37.406Z,49.52
2018-01-08T03:43:37.365Z,49.52
2018-01-08T03:44:37.321Z,49.62
2018-01-08T03:45:37.277Z,49.43
2018-01-08T03:46:37.233Z,49.52
2018-01-08T03:47:37.188Z,49.64
2018-01-08T03:48:37.145Z,49.71
2018-01-08T03:49:37.121Z,49.62
2018-01-08T03:50:37.057Z,49.74
2018-01-08T03:51:37.015Z,49.45
2018-01-08T03:52:36.969Z,49.43
2018-01-08T03:53:36.925Z,49.62
2018-01-08T03:54:36.882Z,49.55
2018-01-08T03:55:36.837Z,49.62
2018-01-08T03:56:36.794Z,49.62
2018-01-08T03:57:36.749Z,49.62
2018-01-08T03:58:36.707Z,49.80
2018-01-08T03:59:36.660Z,49.52
2018-01-08T04:00:36.617Z,49.62
2018-01-08T04:01:36.574Z,49.62
2018-01-08T04:02:36.530Z,49.74
2018-01-08T04:03:36.486Z,49.62
2018-01-08T04:04:36.442Z,49.62
2018-01-08T04:05:36.399Z,49.62
2018-01-08T04:06:36.354Z,49.71
2018-01-08T04:07:36.311Z,49.71
2018-01-08T04:08:36.266Z,49.62
2018-01-08T04:09:36.221Z,49.71
2018-01-08T04:10:36.177Z,49.43
2018-01-08T04:11:36.135Z,49.33
2018-01-08T04:12:36.094Z,49.52
2018-01-08T04:13:36.046Z,49.52
2018-01-08T04:14:36.001Z,49.64
2018-01-08T04:15:35.957Z,49.62
2018-01-08T04:16:35.914Z,49.33
2018-01-08T04:17:35.871Z,49.62
2018-01-08T04:18:35.825Z,49.52
2018-01-08T04:19:35.784Z,49.90
2018-01-08T04:20:35.738Z,49.90
2018-01-08T04:21:35.695Z,49.80
2018-01-08T04:22:35.650Z,50.00
2018-01-08T04:23:35.609Z,50.00
2018-01-08T04:24:35.561Z,49.90
2018-01-08T04:25:35.525Z,49.62
2018-01-08T04:26:35.474Z,49.62
2018-01-08T04:27:35.431Z,49.45
2018-01-08T04:28:35.387Z,49.62
2018-01-08T04:29:35.343Z,49.33
2018-01-08T04:30:35.298Z,49.64
2018-01-08T04:31:35.254Z,49.71
2018-01-08T04:32:35.216Z,49.62
2018-01-08T04:33:35.167Z,49.43
2018-01-08T04:34:35.122Z,49.52
2018-01-08T04:35:35.078Z,49.33
2018-01-08T04:36:35.088Z,49.43
2018-01-08T04:37:34.993Z,49.62
2018-01-08T04:38:34.945Z,49.71
2018-01-08T04:39:34.901Z,49.64
2018-01-08T04:40:34.860Z,49.71
2018-01-08T04:41:34.815Z,49.55
2018-01-08T04:42:34.772Z,49.64
2018-01-08T04:43:34.726Z,49.71
2018-01-08T04:44:34.691Z,49.64
2018-01-08T04:45:34.639Z,49.45
2018-01-08T04:46:34.595Z,49.45
2018-01-08T04:47:34.549Z,49.64
2018-01-08T04:48:34.506Z,49.71
2018-01-08T04:49:34.462Z,49.45
2018-01-08T04:50:34.417Z,49.64
2018-01-08T04:51:34.379Z,49.55
2018-01-08T04:52:34.331Z,49.74
2018-01-08T04:53:34.289Z,49.64
2018-01-08T04:54:34.245Z,49.55
2018-01-08T04:55:34.200Z,49.45
2018-01-08T04:56:34.156Z,49.55
2018-01-08T04:57:34.112Z,49.55
2018-01-08T04:58:34.067Z,49.45
2018-01-08T04:59:34.024Z,49.55
2018-01-08T05:00:33.980Z,49.35
2018-01-08T05:01:33.937Z,49.45
2018-01-08T05:02:33.891Z,49.45
2018-01-08T05:03:33.848Z,49.55
2018-01-08T05:04:33.803Z,49.55
2018-01-08T05:05:33.760Z,49.45
2018-01-08T05:06:33.717Z,49.74
2018-01-08T05:07:33.672Z,49.55
2018-01-08T05:08:33.628Z,49.45
2018-01-08T05:09:33.586Z,49.26
2018-01-08T05:10:33.541Z,49.26
2018-01-08T05:11:33.496Z,49.35
2018-01-08T05:12:33.453Z,49.64
2018-01-08T05:13:33.408Z,49.45
2018-01-08T05:14:33.363Z,49.35
2018-01-08T05:15:33.318Z,49.45
2018-01-08T05:16:33.276Z,49.45
2018-01-08T05:17:33.235Z,49.45
2018-01-08T05:18:33.190Z,49.64
2018-01-08T05:19:33.147Z,49.64
2018-01-08T05:20:33.103Z,49.55
2018-01-08T05:21:33.059Z,49.74
2018-01-08T05:22:33.013Z,49.84
2018-01-08T05:23:32.971Z,49.16
2018-01-08T05:24:32.926Z,49.16
2018-01-08T05:25:32.882Z,49.16
2018-01-08T05:26:32.837Z,49.55
2018-01-08T05:27:32.797Z,49.64
2018-01-08T05:28:32.752Z,49.64
2018-01-08T05:29:32.707Z,49.55
2018-01-08T05:30:32.662Z,49.55
2018-01-08T05:31:32.620Z,49.64
2018-01-08T05:32:32.577Z,49.45
2018-01-08T05:33:32.530Z,49.64
2018-01-08T05:34:32.487Z,49.26
2018-01-08T05:35:32.445Z,49.26
2018-01-08T05:36:32.401Z,49.45
2018-01-08T05:37:32.360Z,49.35
2018-01-08T05:38:32.311Z,49.45
2018-01-08T05:39:32.268Z,49.64
2018-01-08T05:40:32.225Z,49.64
2018-01-08T05:41:32.181Z,49.55
2018-01-08T05:42:32.135Z,49.55
2018-01-08T05:43:32.094Z,49.64
2018-01-08T05:44:32.049Z,49.45
2018-01-08T05:45:32.005Z,49.55
2018-01-08T05:46:31.962Z,49.55
2018-01-08T05:47:31.923Z,49.45
2018-01-08T05:48:31.873Z,49.55
2018-01-08T05:49:31.828Z,49.45
2018-01-08T05:50:31.787Z,49.55
2018-01-08T05:51:31.743Z,49.64
2018-01-08T05:52:31.700Z,49.64
2018-01-08T05:53:31.656Z,49.45
2018-01-08T05:54:31.616Z,49.55
2018-01-08T05:55:31.572Z,49.45
2018-01-08T05:56:31.524Z,49.45
2018-01-08T05:57:31.478Z,49.55
2018-01-08T05:58:31.436Z,49.45
2018-01-08T05:59:31.401Z,49.45
2018-01-08T06:00:31.348Z,49.64
2018-01-08T06:01:31.305Z,49.64
2018-01-08T06:02:31.266Z,49.35
2018-01-08T06:03:31.214Z,49.64
2018-01-08T06:04:31.180Z,49.45
2018-01-08T06:05:31.130Z,49.93
2018-01-08T06:06:31.086Z,49.93
2018-01-08T06:07:31.053Z,50.02
2018-01-08T06:08:31.003Z,50.41
2018-01-08T06:09:30.958Z,50.41
2018-01-08T06:10:30.910Z,50.21
2018-01-08T06:11:30.868Z,50.12
2018-01-08T06:12:30.823Z,50.98
2018-01-08T06:13:30.779Z,51.36
2018-01-08T06:14:30.735Z,51.27
2018-01-08T06:15:30.693Z,51.36
2018-01-08T06:16:30.646Z,50.91
2018-01-08T06:17:30.611Z,51.39
2018-01-08T06:18:30.558Z,51.58
2018-01-08T06:19:30.523Z,51.68
2018-01-08T06:20:30.476Z,52.25
2018-01-08T06:21:30.430Z,52.54
2018-01-08T06:22:30.384Z,52.73
2018-01-08T06:23:30.340Z,53.59
2018-01-08T06:24:30.300Z,54.36
2018-01-08T06:25:30.254Z,53.40
2018-01-08T06:26:30.209Z,54.45
2018-01-08T06:27:30.171Z,54.74
2018-01-08T06:28:30.122Z,55.22
2018-01-08T06:29:30.079Z,54.36
2018-01-08T06:30:30.033Z,53.97
2018-01-08T06:31:29.990Z,54.45
2018-01-08T06:32:29.949Z,54.45
2018-01-08T06:33:29.902Z,55.02
2018-01-08T06:34:29.859Z,55.12
2018-01-08T06:35:29.816Z,54.36
2018-01-08T06:36:29.775Z,55.22
2018-01-08T06:37:29.728Z,54.83
2018-01-08T06:38:29.684Z,54.83
2018-01-08T06:39:29.641Z,54.74
2018-01-08T06:40:29.597Z,55.02
2018-01-08T06:41:29.553Z,55.12
2018-01-08T06:42:29.511Z,54.93
2018-01-08T06:43:29.465Z,55.02
2018-01-08T06:44:29.422Z,54.45
2018-01-08T06:45:29.378Z,54.07
2018-01-08T06:46:29.342Z,53.78
2018-01-08T06:47:29.291Z,54.16
2018-01-08T06:48:29.257Z,54.07
2018-01-08T06:49:29.204Z,54.07
2018-01-08T06:50:29.161Z,54.07
2018-01-08T06:51:29.118Z,53.97
2018-01-08T06:52:29.073Z,54.16
2018-01-08T06:53:29.030Z,53.40
2018-01-08T06:54:28.987Z,53.20
2018-01-08T06:55:28.941Z,54.16
2018-01-08T06:56:28.898Z,54.07
2018-01-08T06:57:28.883Z,54.16
2018-01-08T06:58:28.810Z,54.07
2018-01-08T06:59:28.766Z,54.07
2018-01-08T07:00:28.724Z,53.88
2018-01-08T07:01:28.681Z,53.40
2018-01-08T07:02:28.679Z,53.88
2018-01-08T07:03:28.593Z,53.11
2018-01-08T07:04:28.551Z,53.11
2018-01-08T07:05:28.509Z,53.11
2018-01-08T07:06:28.463Z,52.92
2018-01-08T07:07:28.418Z,52.54
2018-01-08T07:08:28.375Z,52.83
2018-01-08T07:09:28.333Z,52.54
2018-01-08T07:10:28.288Z,52.63
2018-01-08T07:11:28.247Z,52.25
2018-01-08T07:12:28.203Z,52.15
2018-01-08T07:13:28.158Z,52.25
2018-01-08T07:14:28.114Z,52.34
2018-01-08T07:15:28.070Z,52.34
2018-01-08T07:16:28.065Z,52.63
2018-01-08T07:17:27.984Z,52.25
2018-01-08T07:18:27.941Z,52.06
2018-01-08T07:19:27.897Z,52.06
2018-01-08T07:20:27.851Z,52.06
2018-01-08T07:21:27.807Z,51.70
2018-01-08T07:22:27.765Z,51.39
2018-01-08T07:23:27.727Z,51.58
2018-01-08T07:24:27.680Z,51.68
2018-01-08T07:25:27.636Z,51.48
2018-01-08T07:26:27.591Z,51.68
2018-01-08T07:27:27.547Z,51.58
2018-01-08T07:28:27.500Z,51.68
2018-01-08T07:29:27.459Z,51.58
2018-01-08T07:30:27.424Z,51.89
2018-01-08T07:31:27.375Z,51.48
2018-01-08T07:32:27.329Z,51.29
2018-01-08T07:33:27.287Z,51.87
2018-01-08T07:34:27.243Z,51.58
2018-01-08T07:35:27.199Z,51.51
2018-01-08T07:36:27.158Z,51.89
2018-01-08T07:37:27.113Z,51.29
2018-01-08T07:38:27.068Z,51.48
2018-01-08T07:39:27.026Z,52.06
2018-01-08T07:40:26.983Z,51.68
2018-01-08T07:41:26.940Z,51.68
2018-01-08T07:42:26.896Z,52.25
2018-01-08T07:43:26.850Z,51.97
2018-01-08T07:44:26.807Z,52.15
2018-01-08T07:45:26.765Z,52.15
2018-01-08T07:46:26.825Z,52.15
2018-01-08T07:47:26.677Z,51.68
2018-01-08T07:48:26.633Z,51.68
2018-01-08T07:49:26.592Z,51.51
2018-01-08T07:50:26.546Z,51.58
2018-01-08T07:51:26.504Z,51.68
2018-01-08T07:52:26.457Z,51.13
2018-01-08T07:53:26.419Z,51.22
2018-01-08T07:54:26.373Z,51.51
2018-01-08T07:55:26.331Z,51.51
2018-01-08T07:56:26.288Z,51.68
2018-01-08T07:57:26.244Z,51.99
2018-01-08T07:58:26.200Z,51.61
2018-01-08T07:59:26.157Z,51.70
2018-01-08T08:00:26.118Z,52.06
2018-01-08T08:01:26.070Z,52.06
2018-01-08T08:02:26.028Z,52.28
2018-01-08T08:03:25.983Z,51.68
2018-01-08T08:04:25.962Z,51.70
2018-01-08T08:05:25.894Z,51.48
2018-01-08T08:06:25.851Z,51.61
2018-01-08T08:07:25.816Z,51.70
2018-01-08T08:08:25.766Z,51.58
2018-01-08T08:09:25.722Z,51.70
2018-01-08T08:10:25.678Z,51.70
2018-01-08T08:11:25.636Z,51.32
2018-01-08T08:12:25.598Z,50.81
2018-01-08T08:13:25.549Z,51.87
2018-01-08T08:14:25.505Z,51.87
2018-01-08T08:15:25.462Z,51.42
2018-01-08T08:16:25.418Z,51.48
2018-01-08T08:17:25.375Z,51.51
2018-01-08T08:18:25.331Z,51.13
2018-01-08T08:19:25.288Z,51.51
2018-01-08T08:20:25.244Z,52.09
2018-01-08T08:21:25.228Z,51.70
2018-01-08T08:22:25.159Z,51.22
2018-01-08T08:23:25.116Z,50.84
2018-01-08T08:24:25.072Z,51.03
2018-01-08T08:25:25.028Z,51.32
2018-01-08T08:26:24.985Z,51.61
2018-01-08T08:27:24.943Z,51.13
2018-01-08T08:28:24.904Z,51.22
2018-01-08T08:29:24.856Z,51.32
2018-01-08T08:30:24.812Z,51.03
2018-01-08T08:31:24.769Z,51.03
2018-01-08T08:32:24.724Z,50.93
2018-01-08T08:33:24.682Z,51.13
2018-01-08T08:34:24.637Z,51.22
2018-01-08T08:35:24.595Z,51.32
2018-01-08T08:36:24.552Z,51.99
2018-01-08T08:37:24.509Z,51.03
2018-01-08T08:38:24.464Z,50.74
2018-01-08T08:39:24.424Z,51.70
2018-01-08T08:40:24.375Z,51.99
2018-01-08T08:41:24.335Z,51.79
2018-01-08T08:42:24.292Z,51.22
2018-01-08T08:43:24.248Z,51.99
2018-01-08T08:44:24.204Z,51.42
2018-01-08T08:45:24.162Z,51.13
2018-01-08T08:46:24.120Z,51.13
2018-01-08T08:47:24.073Z,50.84
2018-01-08T08:48:24.033Z,51.22
2018-01-08T08:49:23.989Z,51.01
2018-01-08T08:50:23.944Z,51.13
2018-01-08T08:51:23.901Z,51.22
2018-01-08T08:52:23.858Z,50.74
2018-01-08T08:53:23.833Z,50.56
2018-01-08T08:54:23.791Z,50.74
2018-01-08T08:55:23.729Z,51.13
2018-01-08T08:56:23.686Z,51.61
2018-01-08T08:57:23.643Z,51.70
2018-01-08T08:58:23.641Z,51.99
2018-01-08T08:59:23.556Z,51.51
2018-01-08T09:00:23.514Z,51.32
2018-01-08T09:01:23.469Z,50.84
2018-01-08T09:02:23.427Z,51.03
2018-01-08T09:03:23.388Z,51.03
2018-01-08T09:04:23.339Z,50.93
2018-01-08T09:05:23.342Z,50.74
2018-01-08T09:06:23.253Z,50.93
2018-01-08T09:07:23.210Z,51.22
2018-01-08T09:08:23.166Z,50.74
2018-01-08T09:09:23.122Z,50.84
2018-01-08T09:10:23.082Z,50.93
2018-01-08T09:11:23.037Z,50.46
2018-01-08T09:12:22.998Z,50.56
2018-01-08T09:13:22.952Z,50.17
2018-01-08T09:14:22.908Z,50.36
2018-01-08T09:15:22.891Z,50.56
2018-01-08T09:16:22.826Z,50.36
2018-01-08T09:17:22.783Z,50.26
2018-01-08T09:18:22.735Z,50.26
2018-01-08T09:19:22.697Z,50.46
2018-01-08T09:20:22.649Z,50.36
2018-01-08T09:21:22.605Z,50.46
2018-01-08T09:22:22.562Z,50.17
2018-01-08T09:23:22.519Z,50.36
2018-01-08T09:24:22.475Z,50.93
2018-01-08T09:25:22.432Z,51.32
2018-01-08T09:26:22.391Z,51.32
2018-01-08T09:27:22.350Z,50.93
2018-01-08T09:28:22.302Z,51.03
2018-01-08T09:29:22.259Z,51.22
2018-01-08T09:30:22.216Z,51.70
2018-01-08T09:31:22.180Z,51.61
2018-01-08T09:32:22.134Z,51.89
2018-01-08T09:33:22.087Z,52.28
2018-01-08T09:34:22.041Z,52.56
2018-01-08T09:35:22.003Z,52.56
2018-01-08T09:36:21.965Z,53.14
2018-01-08T09:37:21.915Z,52.75
2018-01-08T09:38:21.872Z,52.56
2018-01-08T09:39:21.830Z,53.16
2018-01-08T09:40:21.789Z,53.26
2018-01-08T09:41:21.744Z,52.59
2018-01-08T09:42:21.698Z,53.07
2018-01-08T09:43:21.656Z,52.87
2018-01-08T09:44:21.619Z,52.40
2018-01-08T09:45:21.571Z,52.40
2018-01-08T09:46:21.527Z,52.78
2018-01-08T09:47:21.488Z,52.40
2018-01-08T09:48:21.442Z,52.30
2018-01-08T09:49:21.399Z,52.78
2018-01-08T09:50:21.488Z,52.69
2018-01-08T09:51:21.312Z,52.87
2018-01-08T09:52:21.271Z,52.20
2018-01-08T09:53:21.227Z,52.40
2018-01-08T09:54:21.183Z,51.73
2018-01-08T09:55:21.140Z,51.63
2018-01-08T09:56:21.109Z,51.63
2018-01-08T09:57:21.061Z,51.63
2018-01-08T09:58:21.011Z,51.73
2018-01-08T09:59:20.969Z,51.63
2018-01-08T10:00:20.926Z,51.73
2018-01-08T10:01:20.884Z,51.54
2018-01-08T10:02:20.910Z,51.63
2018-01-08T10:03:20.804Z,51.15
2018-01-08T10:04:20.760Z,51.82
2018-01-08T10:05:20.715Z,51.34
2018-01-08T10:06:20.670Z,51.92
2018-01-08T10:07:20.750Z,50.77
2018-01-08T10:08:20.591Z,51.25
2018-01-08T10:09:20.541Z,51.15
2018-01-08T10:10:20.498Z,50.87
2018-01-08T10:11:20.472Z,50.87
2018-01-08T10:12:20.420Z,51.06
2018-01-08T10:13:20.398Z,51.06
2018-01-08T10:14:20.327Z,51.15
2018-01-08T10:15:20.362Z,51.06
2018-01-08T10:16:20.245Z,50.96
2018-01-08T10:17:20.202Z,50.67
2018-01-08T10:18:20.155Z,50.77
2018-01-08T10:19:20.112Z,50.58
2018-01-08T10:20:20.069Z,50.58
2018-01-08T10:21:20.029Z,50.38
2018-01-08T10:22:19.990Z,50.67
2018-01-08T10:23:19.942Z,50.58
2018-01-08T10:24:19.902Z,50.96
2018-01-08T10:25:19.858Z,51.34
2018-01-08T10:26:19.813Z,51.06
2018-01-08T10:27:19.774Z,50.87
2018-01-08T10:28:19.727Z,50.96
2018-01-08T10:29:19.686Z,50.58
2018-01-08T10:30:19.643Z,50.67
2018-01-08T10:31:19.598Z,51.34
2018-01-08T10:32:19.557Z,50.58
2018-01-08T10:33:19.515Z,51.06
2018-01-08T10:34:19.471Z,50.87
2018-01-08T10:35:19.427Z,50.87
2018-01-08T10:36:19.387Z,50.77
2018-01-08T10:37:19.347Z,50.77
2018-01-08T10:38:19.300Z,50.70
2018-01-08T10:39:19.257Z,50.60
2018-01-08T10:40:19.215Z,50.32
2018-01-08T10:41:19.173Z,50.29
2018-01-08T10:42:19.135Z,50.03
2018-01-08T10:43:19.087Z,50.12
2018-01-08T10:44:19.046Z,50.22
2018-01-08T10:45:19.003Z,50.22
2018-01-08T10:46:18.960Z,50.32
2018-01-08T10:47:18.917Z,50.51
2018-01-08T10:48:19.004Z,50.41
2018-01-08T10:49:18.833Z,50.32
2018-01-08T10:50:18.789Z,50.12
2018-01-08T10:51:18.756Z,50.03
2018-01-08T10:52:18.705Z,50.51
2018-01-08T10:53:18.660Z,50.12
2018-01-08T10:54:18.616Z,49.93
2018-01-08T10:55:18.576Z,49.84
2018-01-08T10:56:18.535Z,49.65
2018-01-08T10:57:18.492Z,49.55
2018-01-08T10:58:18.448Z,49.84
2018-01-08T10:59:18.407Z,49.74
2018-01-08T11:00:18.365Z,49.55
2018-01-08T11:01:18.330Z,49.74
2018-01-08T11:02:18.279Z,49.65
2018-01-08T11:03:18.237Z,49.36
2018-01-08T11:04:18.192Z,49.26
2018-01-08T11:05:18.179Z,48.97
2018-01-08T11:06:18.118Z,48.97
2018-01-08T11:07:18.069Z,49.26
2018-01-08T11:08:18.025Z,48.49
2018-01-08T11:09:17.984Z,48.78
2018-01-08T11:10:17.942Z,48.78
2018-01-08T11:11:17.900Z,48.59
2018-01-08T11:12:17.857Z,48.78
2018-01-08T11:13:17.815Z,48.69
2018-01-08T11:14:17.774Z,48.78
2018-01-08T11:15:17.730Z,48.59
2018-01-08T11:16:17.688Z,48.97
2018-01-08T11:17:17.645Z,48.97
2018-01-08T11:18:17.602Z,50.03
2018-01-08T11:19:17.560Z,48.97
2018-01-08T11:20:17.519Z,48.97
2018-01-08T11:21:17.476Z,48.97
2018-01-08T11:22:17.434Z,48.97
2018-01-08T11:23:17.392Z,48.97
2018-01-08T11:24:17.350Z,48.97
2018-01-08T11:25:17.309Z,49.07
2018-01-08T11:26:17.264Z,48.78
2018-01-08T11:27:17.241Z,48.88
2018-01-08T11:28:17.180Z,49.65
2018-01-08T11:29:17.165Z,49.84
2018-01-08T11:30:17.094Z,49.16
2018-01-08T11:31:17.065Z,49.55
2018-01-08T11:32:17.012Z,49.65
2018-01-08T11:33:16.968Z,49.26
2018-01-08T11:34:16.925Z,49.26
2018-01-08T11:35:16.884Z,48.97
2018-01-08T11:36:16.843Z,48.97
2018-01-08T11:37:16.799Z,49.07
2018-01-08T11:38:16.756Z,48.97
2018-01-08T11:39:16.711Z,48.97
2018-01-08T11:40:16.672Z,49.74
2018-01-08T11:41:16.631Z,49.84
2018-01-08T11:42:16.593Z,49.74
2018-01-08T11:43:16.546Z,49.26
2018-01-08T11:44:16.503Z,49.07
2018-01-08T11:45:16.461Z,48.97
2018-01-08T11:46:16.417Z,49.07
2018-01-08T11:47:16.383Z,48.88
2018-01-08T11:48:16.333Z,49.07
2018-01-08T11:49:16.294Z,48.88
2018-01-08T11:50:16.249Z,48.97
2018-01-08T11:51:16.206Z,48.69
2018-01-08T11:52:16.165Z,48.59
2018-01-08T11:53:16.123Z,48.69
2018-01-08T11:54:16.080Z,48.59
2018-01-08T11:55:16.039Z,48.49
2018-01-08T11:56:15.995Z,48.30
2018-01-08T11:57:15.953Z,48.59
2018-01-08T11:58:15.911Z,48.30
2018-01-08T11:59:15.868Z,48.40
2018-01-08T12:00:15.826Z,48.21
2018-01-08T12:01:15.785Z,48.49
2018-01-08T12:02:15.740Z,48.40
2018-01-08T12:03:15.705Z,48.78
2018-01-08T12:04:15.657Z,48.69
2018-01-08T12:05:15.614Z,48.69
2018-01-08T12:06:15.573Z,48.40
2018-01-08T12:07:15.528Z,48.40
2018-01-08T12:08:15.491Z,48.21
2018-01-08T12:09:15.452Z,48.40
2018-01-08T12:10:15.403Z,48.21
2018-01-08T12:11:15.358Z,48.59
2018-01-08T12:12:15.319Z,48.59
2018-01-08T12:13:15.287Z,48.69
2018-01-08T12:14:15.233Z,48.49
2018-01-08T12:15:15.191Z,49.74
2018-01-08T12:16:15.154Z,49.74
2018-01-08T12:17:15.109Z,48.88
2018-01-08T12:18:15.063Z,49.55
2018-01-08T12:19:15.023Z,50.12
2018-01-08T12:20:14.977Z,49.65
2018-01-08T12:21:14.940Z,48.97
2018-01-08T12:22:14.893Z,48.78
2018-01-08T12:23:14.853Z,48.97
2018-01-08T12:24:14.811Z,48.69
2018-01-08T12:25:14.770Z,48.49
2018-01-08T12:26:14.726Z,48.88
2018-01-08T12:27:14.683Z,49.07
2018-01-08T12:28:14.643Z,48.97
2018-01-08T12:29:14.607Z,49.07
2018-01-08T12:30:14.558Z,48.88
2018-01-08T12:31:14.515Z,48.88
2018-01-08T12:32:14.473Z,48.97
2018-01-08T12:33:14.432Z,49.45
2018-01-08T12:34:14.389Z,49.55
2018-01-08T12:35:14.347Z,49.74
2018-01-08T12:36:14.303Z,50.03
2018-01-08T12:37:15.268Z,49.65
2018-01-08T12:38:14.219Z,49.55
2018-01-08T12:39:14.178Z,49.84
2018-01-08T12:40:14.135Z,49.65
2018-01-08T12:41:14.107Z,49.74
2018-01-08T12:42:14.050Z,49.36
2018-01-08T12:43:14.008Z,49.26
2018-01-08T12:44:13.965Z,49.36
2018-01-08T12:45:13.923Z,49.55
2018-01-08T12:46:13.880Z,49.55
2018-01-08T12:47:13.837Z,49.74
2018-01-08T12:48:13.796Z,49.84
2018-01-08T12:49:13.755Z,49.65
2018-01-08T12:50:13.711Z,49.65
2018-01-08T12:51:13.672Z,49.74
2018-01-08T12:52:13.625Z,49.45